createdAt,value
2019-05-15T00:02:33.089Z,102402.10
2019-05-15T00:06:35.139Z,102403.44
2019-05-15T00:10:38.925Z,102400.27
2019-05-15T00:14:41.022Z,102397.69
2019-05-15T00:18:44.604Z,102404.22
2019-05-15T00:22:48.390Z,102403.41
2019-05-15T00:26:50.383Z,102412.38
2019-05-15T00:30:52.489Z,102405.53
2019-05-15T00:34:54.621Z,102413.20
2019-05-15T00:38:58.945Z,102416.88
2019-05-15T00:43:03.275Z,102418.72
2019-05-15T00:47:05.731Z,102419.27
2019-05-15T00:51:08.483Z,102423.77
2019-05-15T00:55:12.029Z,102419.34
2019-05-15T00:59:24.106Z,102423.06
2019-05-15T01:03:18.380Z,102426.14
2019-05-15T01:07:20.549Z,102430.64
2019-05-15T01:11:22.492Z,102433.83
2019-05-15T01:15:24.792Z,102433.05
2019-05-15T01:19:28.728Z,102444.06
2019-05-15T01:23:30.876Z,102435.30
2019-05-15T01:27:32.845Z,102441.00
2019-05-15T01:31:34.965Z,102431.41
2019-05-15T01:35:38.363Z,102437.54
2019-05-15T01:39:40.677Z,102436.22
2019-05-15T01:43:42.906Z,102428.67
2019-05-15T01:47:45.140Z,102426.55
2019-05-15T01:51:47.957Z,102425.34
2019-05-15T01:55:50.087Z,102419.36
2019-05-15T01:59:57.222Z,102423.36
2019-05-15T02:03:56.086Z,102419.52
2019-05-15T02:07:58.586Z,102424.78
2019-05-15T02:12:00.729Z,102421.77
2019-05-15T02:16:02.910Z,102419.63
2019-05-15T02:20:08.147Z,102422.25
2019-05-15T02:24:11.025Z,102425.38
2019-05-15T02:28:13.144Z,102424.01
2019-05-15T02:32:15.431Z,102425.75
2019-05-15T02:36:20.543Z,102420.89
2019-05-15T02:40:21.465Z,102425.27
2019-05-15T02:44:24.027Z,102419.63
2019-05-15T02:48:28.973Z,102419.19
2019-05-15T02:52:30.191Z,102414.75
2019-05-15T02:56:32.454Z,102419.42
2019-05-15T03:00:45.258Z,102416.30
2019-05-15T03:04:40.116Z,102407.91
2019-05-15T03:08:42.409Z,102411.64
2019-05-15T03:12:44.559Z,102413.22
2019-05-15T03:16:49.525Z,102403.78
2019-05-15T03:20:50.486Z,102412.27
2019-05-15T03:24:52.669Z,102402.36
2019-05-15T03:28:54.806Z,102401.47
2019-05-15T03:33:07.751Z,102406.78
2019-05-15T03:37:03.486Z,102411.11
2019-05-15T03:41:04.957Z,102403.80
2019-05-15T03:45:10.036Z,102404.73
2019-05-15T03:49:11.512Z,102396.47
2019-05-15T03:53:13.724Z,102398.19
2019-05-15T03:57:20.055Z,102397.27
2019-05-15T04:01:30.036Z,102392.72
2019-05-15T04:05:23.679Z,102395.72
2019-05-15T04:09:29.158Z,102397.27
2019-05-15T04:13:30.363Z,102398.67
2019-05-15T04:17:32.423Z,102397.98
2019-05-15T04:21:34.997Z,102406.45
2019-05-15T04:25:39.171Z,102402.75
2019-05-15T04:29:41.539Z,102411.31
2019-05-15T04:33:44.173Z,102407.01
2019-05-15T04:37:49.161Z,102408.77
2019-05-15T04:41:51.074Z,102408.86
2019-05-15T04:45:53.511Z,102412.24
2019-05-15T04:49:55.683Z,102415.73
2019-05-15T04:53:58.611Z,102417.70
2019-05-15T04:58:01.050Z,102425.77
2019-05-15T05:02:16.234Z,102422.42
2019-05-15T05:06:09.662Z,102426.80
2019-05-15T05:10:13.523Z,102432.66
2019-05-15T05:14:15.594Z,102425.88
2019-05-15T05:18:19.040Z,102431.13
2019-05-15T05:22:21.213Z,102431.49
2019-05-15T05:26:23.253Z,102433.09
2019-05-15T05:30:25.395Z,102431.98
2019-05-15T05:34:28.365Z,102436.06
2019-05-15T05:38:30.958Z,102436.55
2019-05-15T05:42:33.097Z,102438.94
2019-05-15T05:46:34.922Z,102433.71
2019-05-15T05:50:39.056Z,102433.80
2019-05-15T05:54:41.209Z,102431.20
2019-05-15T05:58:43.159Z,102444.08
2019-05-15T06:02:48.835Z,102437.91
2019-05-15T06:07:06.201Z,102446.81
2019-05-15T06:10:55.483Z,102444.66
2019-05-15T06:14:58.041Z,102442.88
2019-05-15T06:19:00.116Z,102451.64
2019-05-15T06:23:02.356Z,102452.67
2019-05-15T06:27:04.447Z,102453.22
2019-05-15T06:31:08.663Z,102458.27
2019-05-15T06:35:11.800Z,102459.68
2019-05-15T06:39:13.618Z,102455.48
2019-05-15T06:43:15.875Z,102455.96
2019-05-15T06:47:18.131Z,102456.22
2019-05-15T06:51:20.291Z,102461.80
2019-05-15T06:55:22.457Z,102466.84
2019-05-15T06:59:24.577Z,102458.31
2019-05-15T07:03:29.387Z,102462.22
2019-05-15T07:07:31.293Z,102471.48
2019-05-15T07:11:33.579Z,102463.31
2019-05-15T07:15:38.213Z,102461.19
2019-05-15T07:19:39.496Z,102460.75
2019-05-15T07:23:41.635Z,102467.63
2019-05-15T07:27:43.781Z,102466.61
2019-05-15T07:31:47.837Z,102461.48
2019-05-15T07:35:50.322Z,102466.42
2019-05-15T07:39:52.063Z,102472.36
2019-05-15T07:43:54.085Z,102458.30
2019-05-15T07:47:58.479Z,102459.78
2019-05-15T07:52:00.312Z,102456.98
2019-05-15T07:56:02.087Z,102458.31
2019-05-15T08:00:05.434Z,102449.84
2019-05-15T08:04:22.834Z,102456.45
2019-05-15T08:08:10.717Z,102444.91
2019-05-15T08:12:12.564Z,102440.54
2019-05-15T08:16:14.742Z,102438.34
2019-05-15T08:20:18.753Z,102444.66
2019-05-15T08:24:20.579Z,102438.07
2019-05-15T08:28:23.368Z,102447.28
2019-05-15T08:32:25.261Z,102428.64
2019-05-15T08:36:27.990Z,102425.12
2019-05-15T08:40:30.693Z,102424.42
2019-05-15T08:44:32.512Z,102417.70
2019-05-15T08:48:34.495Z,102419.26
2019-05-15T08:52:39.086Z,102414.16
2019-05-15T08:56:40.017Z,102414.67
2019-05-15T09:00:44.098Z,102403.83
2019-05-15T09:04:45.320Z,102408.58
2019-05-15T09:08:49.076Z,102407.91
2019-05-15T09:12:53.932Z,102405.29
2019-05-15T09:16:54.358Z,102404.39
2019-05-15T09:20:59.084Z,102405.77
2019-05-15T09:24:59.845Z,102403.66
2019-05-15T09:29:01.753Z,102395.69
2019-05-15T09:33:03.557Z,102399.72
2019-05-15T09:37:05.501Z,102389.86
2019-05-15T09:41:08.992Z,102389.32
2019-05-15T09:45:11.104Z,102385.53
2019-05-15T09:49:12.859Z,102388.03
2019-05-15T09:53:15.163Z,102388.16
2019-05-15T09:57:18.907Z,102385.71
2019-05-15T10:01:21.171Z,102379.09
2019-05-15T10:05:23.350Z,102379.66
2019-05-15T10:09:28.430Z,102376.48
2019-05-15T10:13:30.017Z,102377.92
2019-05-15T10:17:33.081Z,102376.23
2019-05-15T10:21:35.193Z,102367.78
2019-05-15T10:25:38.903Z,102362.48
2019-05-15T10:29:41.249Z,102359.99
2019-05-15T10:33:43.474Z,102361.98
2019-05-15T10:37:48.523Z,102363.20
2019-05-15T10:41:49.445Z,102355.84
2019-05-15T10:45:54.584Z,102357.28
2019-05-15T10:49:55.262Z,102357.77
2019-05-15T10:53:57.183Z,102344.45
2019-05-15T10:57:59.324Z,102357.48
2019-05-15T11:02:01.437Z,102345.81
2019-05-15T11:06:03.694Z,102342.69
2019-05-15T11:10:05.867Z,102343.00
2019-05-15T11:14:09.176Z,102337.88
2019-05-15T11:18:11.533Z,102343.13
2019-05-15T11:22:14.710Z,102343.75
2019-05-15T11:26:19.244Z,102338.13
2019-05-15T11:30:20.486Z,102334.00
2019-05-15T11:34:22.553Z,102339.34
2019-05-15T11:38:24.555Z,102336.55
2019-05-15T11:42:28.890Z,102327.95
2019-05-15T11:46:30.572Z,102324.44
2019-05-15T11:50:32.698Z,102325.23
2019-05-15T11:54:35.007Z,102322.83
2019-05-15T11:58:38.950Z,102333.47
2019-05-15T12:02:40.638Z,102332.77
2019-05-15T12:06:56.988Z,102324.93
2019-05-15T12:10:46.828Z,102316.28
2019-05-15T12:14:49.463Z,102322.87
2019-05-15T12:18:51.602Z,102312.18
2019-05-15T12:22:53.448Z,102305.22
2019-05-15T12:26:55.704Z,102302.02
2019-05-15T12:30:59.665Z,102291.74
2019-05-15T12:35:01.037Z,102296.88
2019-05-15T12:39:09.476Z,102296.49
2019-05-15T13:03:25.392Z,102282.97
2019-05-15T13:07:28.604Z,102274.41
2019-05-15T13:11:31.032Z,102279.28
2019-05-15T13:15:32.802Z,102277.38
2019-05-15T13:19:34.721Z,102261.27
2019-05-15T13:23:38.579Z,102259.93
2019-05-15T13:27:40.124Z,102253.88
2019-05-15T13:31:43.110Z,102246.80
2019-05-15T13:35:45.698Z,102247.12
2019-05-15T13:39:48.577Z,102240.34
2019-05-15T13:43:50.494Z,102234.80
2019-05-15T13:47:52.267Z,102231.78
2019-05-15T13:51:53.996Z,102228.55
2019-05-15T13:55:55.831Z,102228.88
2019-05-15T13:59:58.883Z,102229.86
2019-05-15T14:04:00.898Z,102230.39
2019-05-15T14:08:02.687Z,102227.05
2019-05-15T14:12:04.553Z,102221.31
2019-05-15T14:16:09.408Z,102220.81
2019-05-15T14:20:10.684Z,102222.13
2019-05-15T14:24:12.467Z,102226.95
2019-05-15T14:28:15.255Z,102218.55
2019-05-15T14:32:32.791Z,102228.21
2019-05-15T14:36:22.320Z,102229.45
2019-05-15T14:40:25.265Z,102217.99
2019-05-15T14:44:27.080Z,102213.31
2019-05-15T14:48:30.132Z,102212.86
2019-05-15T14:52:32.005Z,102208.70
2019-05-15T14:56:33.770Z,102215.72
2019-05-15T15:00:35.605Z,102210.06
2019-05-15T15:04:40.278Z,102199.73
2019-05-15T15:08:43.165Z,102208.45
2019-05-15T15:12:45.306Z,102215.88
2019-05-15T15:16:48.947Z,102198.31
2019-05-15T15:20:50.543Z,102199.16
2019-05-15T15:24:52.340Z,102198.09
2019-05-15T15:28:54.184Z,102195.00
2019-05-15T15:32:57.683Z,102197.74
2019-05-15T15:36:59.664Z,102198.12
2019-05-15T15:41:01.471Z,102195.56
2019-05-15T15:45:03.505Z,102199.63
2019-05-15T15:49:05.429Z,102200.53
2019-05-15T15:53:09.081Z,102194.79
2019-05-15T15:57:12.809Z,102200.39
2019-05-15T16:01:14.592Z,102205.88
2019-05-15T16:05:18.969Z,102205.88
2019-05-15T16:09:20.333Z,102199.69
2019-05-15T16:13:22.172Z,102200.20
2019-05-15T16:17:23.936Z,102200.89
2019-05-15T16:21:28.568Z,102200.21
2019-05-15T16:25:29.292Z,102209.63
2019-05-15T16:29:31.087Z,102217.95
2019-05-15T16:33:32.858Z,102224.16
2019-05-15T16:37:34.663Z,102221.88
2019-05-15T16:41:38.334Z,102224.14
2019-05-15T16:45:40.256Z,102222.73
2019-05-15T16:49:42.042Z,102231.18
2019-05-15T16:53:43.898Z,102220.66
2019-05-15T16:57:47.806Z,102217.45
2019-05-15T17:01:49.206Z,102222.10
2019-05-15T17:05:51.013Z,102224.11
2019-05-15T17:09:52.868Z,102223.94
2019-05-15T17:13:54.681Z,102226.74
2019-05-15T17:17:58.328Z,102235.88
2019-05-15T17:21:59.911Z,102230.39
2019-05-15T17:26:02.220Z,102239.97
2019-05-15T17:30:04.062Z,102240.55
2019-05-15T17:34:05.933Z,102243.46
2019-05-15T17:38:07.973Z,102251.51
2019-05-15T17:42:09.920Z,102242.89
2019-05-15T17:46:12.268Z,102252.61
2019-05-15T17:50:14.963Z,102258.97
2019-05-15T17:54:18.201Z,102260.48
2019-05-15T17:58:20.633Z,102262.24
2019-05-15T18:02:23.589Z,102265.44
2019-05-15T18:06:28.644Z,102265.44
2019-05-15T18:10:29.613Z,102270.52
2019-05-15T18:14:31.713Z,102268.00
2019-05-15T18:18:33.825Z,102266.46
2019-05-15T18:22:37.905Z,102266.07
2019-05-15T18:26:39.639Z,102268.53
2019-05-15T18:30:41.758Z,102270.61
2019-05-15T18:34:43.768Z,102271.16
2019-05-15T18:38:48.089Z,102273.87
2019-05-15T18:42:49.740Z,102282.31
2019-05-15T18:46:51.894Z,102285.34
2019-05-15T18:50:54.035Z,102290.13
2019-05-15T18:54:58.706Z,102287.64
2019-05-15T18:59:00.944Z,102296.05
2019-05-15T19:03:15.990Z,102289.84
2019-05-15T19:07:08.890Z,102300.61
2019-05-15T19:11:14.404Z,102303.16
2019-05-15T19:15:17.892Z,102298.04
2019-05-15T19:19:20.438Z,102304.63
2019-05-15T19:23:22.510Z,102311.43
2019-05-15T19:27:24.766Z,102310.98
2019-05-15T19:31:29.824Z,102306.52
2019-05-15T19:35:30.746Z,102310.94
2019-05-15T19:39:32.924Z,102311.17
2019-05-15T19:43:34.977Z,102312.45
2019-05-15T19:47:38.688Z,102318.48
2019-05-15T19:51:41.177Z,102313.00
2019-05-15T19:55:43.333Z,102311.63
2019-05-15T19:59:45.465Z,102316.22
2019-05-15T20:03:52.842Z,102315.11
2019-05-15T20:07:52.900Z,102317.45
2019-05-15T20:11:54.996Z,102311.94
2019-05-15T20:15:58.031Z,102319.03
2019-05-15T20:20:01.594Z,102315.91
2019-05-15T20:24:04.009Z,102319.55
2019-05-15T20:28:08.260Z,102322.70
2019-05-15T20:32:11.262Z,102327.81
2019-05-15T20:36:13.610Z,102327.09
2019-05-15T20:40:17.955Z,102324.98
2019-05-15T20:44:19.646Z,102326.23
2019-05-15T20:48:21.740Z,102324.55
2019-05-15T20:52:23.890Z,102326.78
2019-05-15T20:56:28.146Z,102322.60
2019-05-15T21:00:30.053Z,102334.73
2019-05-15T21:04:32.375Z,102333.25
2019-05-15T21:08:35.439Z,102338.45
2019-05-15T21:12:40.461Z,102338.22
2019-05-15T21:16:41.352Z,102332.92
2019-05-15T21:20:43.374Z,102337.63
2019-05-15T21:24:45.511Z,102336.72
2019-05-15T21:28:48.175Z,102335.66
2019-05-15T21:32:50.541Z,102334.56
2019-05-15T21:36:52.722Z,102333.00
2019-05-15T21:40:55.140Z,102331.45
2019-05-15T21:44:58.210Z,102340.06
2019-05-15T21:49:00.803Z,102342.38
2019-05-15T21:53:03.152Z,102337.38
2019-05-15T21:57:24.932Z,102346.84
2019-05-15T22:01:11.182Z,102346.26
2019-05-15T22:05:14.228Z,102344.38
2019-05-15T22:09:19.364Z,102358.03
2019-05-15T22:13:22.066Z,102350.61
2019-05-15T22:17:25.207Z,102351.94
2019-05-15T22:21:27.815Z,102354.52
2019-05-15T22:25:30.049Z,102352.98
2019-05-15T22:29:32.550Z,102352.75
2019-05-15T22:33:34.774Z,102354.81
2019-05-15T22:37:41.135Z,102350.65
2019-05-15T22:41:41.285Z,102349.81
2019-05-15T22:45:43.493Z,102353.60
2019-05-15T22:49:45.542Z,102344.09
2019-05-15T22:53:48.909Z,102352.02
2019-05-15T22:57:51.104Z,102355.26
2019-05-15T23:01:53.476Z,102353.82
2019-05-15T23:05:57.969Z,102357.57
2019-05-15T23:09:59.850Z,102351.00
2019-05-15T23:14:02.077Z,102353.61
2019-05-15T23:18:04.289Z,102356.28
2019-05-15T23:22:08.345Z,102355.37
2019-05-15T23:26:10.545Z,102351.78
2019-05-15T23:30:13.853Z,102349.92
2019-05-15T23:34:18.530Z,102355.32
2019-05-15T23:38:19.770Z,102356.27
2019-05-15T23:42:21.901Z,102360.21
2019-05-15T23:46:24.035Z,102356.25
2019-05-15T23:50:28.636Z,102360.59
2019-05-15T23:54:30.098Z,102358.47
2019-05-15T23:58:32.171Z,102361.25
